Station SXXA2 - Saxman Landing, AK Image indicating link to RSS feed of recent meteorological observations for station SXXA2


Conditions at SXXA2 as of
(3:22 pm AKDT)
2322 GMT on 05/10/2026:
     

Click on the graph icon in the table below to see a time series plot of the last five days of that observation.

5-day plot - Wind Direction Wind Direction (WDIR): S ( 190 deg true )
5-day plot - Wind Speed Wind Speed (WSPD): 9.9 kts
5-day plot - Wind Gust Wind Gust (GST): 15.0 kts
5-day plot - Atmospheric Pressure Atmospheric Pressure (PRES):30.01 in
5-day plot - Air Temperature Air Temperature (ATMP): 48.9 °F
5-day plot - Dew Point Dew Point (DEWP): 45.1 °F
5-day plot - Wind Chill Wind Chill (CHILL): 44.2 °F
5-day plot - Wind Speed at 10 Meters Wind Speed at 10 meters (WSPD10M): 11.7 kts
5-day plot - Wind Speed at 20 Meters Wind Speed at 20 meters (WSPD20M): 11.7 kts
5-day plot -  Wind Speed, Wind Gust and Atmospheric Pressure Combined plot of Wind Speed, Gust, and Air Pressure
Previous observations
TIME
(AKDT)
5-day plot - Wind Direction
WDIR
 
5-day plot - Wind Speed
WSPD
kts
5-day plot - Wind Gust
GST
kts
5-day plot - Wave Height
WVHT
ft
5-day plot - Dominant Wave Period
DPD
sec
5-day plot - Average Wave Period
APD
sec
5-day plot - Mean Wave Direction
MWD
 
5-day plot - Atmospheric Pressure
PRES
in
5-day plot - Pressure Tendency
PTDY
in
5-day plot - Air Temperature
ATMP
°F
5-day plot - Water Temperature
WTMP
°F
5-day plot - Dew Point
DEWP
°F
5-day plot - Salinity
SAL
psu
5-day plot - Visibility
VIS
nmi
5-day plot - Tide (above MLLW)
TIDE
ft
2026-05-10 03:12 pm S 8.0 11.1----30.01- 48.9- 45.1---
2026-05-10 03:02 pm S 8.9 14.0----30.01- 48.9- 45.5---
2026-05-10 02:52 pm S 9.9 15.0----30.00- 49.3- 45.5---
2026-05-10 02:42 pm S 8.9 15.9----30.00- 49.3- 45.5---
2026-05-10 02:32 pm S 9.9 15.9----29.99- 49.5- 45.5---
2026-05-10 02:22 pm S 9.9 14.0----29.99- 48.9- 45.1---
2026-05-10 02:12 pm S 8.9 15.9----29.99- 48.9- 45.1---
2026-05-10 02:02 pm S 9.9 14.0----29.99- 48.9- 45.1---
2026-05-10 01:52 pm S 8.9 13.0----29.98- 49.5- 45.5---
2026-05-10 01:42 pm S 8.9 15.9----29.98- 49.1- 45.3---
2026-05-10 01:32 pm S 8.9 14.0----29.98- 48.9- 45.5---
2026-05-10 01:22 pm S 9.9 15.9----29.97- 48.9- 45.5---
2026-05-10 01:12 pm S 8.9 15.0----29.97- 49.5- 45.7---
2026-05-10 01:02 pm S 8.0 12.0----29.97- 48.9- 45.1---
2026-05-10 12:52 pm S 8.0 12.0----29.97- 48.9- 45.1---
2026-05-10 12:42 pm S 9.9 15.0----29.96- 48.9- 45.0---
2026-05-10 12:32 pm S 9.9 14.0----29.96- 48.9- 45.1---
2026-05-10 12:22 pm S 9.9 14.0----29.96- 48.9- 45.1---
2026-05-10 12:12 pm S 9.9 14.0----29.96- 48.9- 45.1---
2026-05-10 12:02 pm S 9.9 17.1----29.95- 48.9- 45.1---
2026-05-10 11:52 am S 8.9 15.0----29.94- 48.9- 45.5---
2026-05-10 11:42 am S 7.0 12.0----29.94- 48.9- 45.5---
2026-05-10 11:32 am S 8.0 12.0----29.94- 48.9- 45.1---
2026-05-10 11:22 am S 8.0 12.0----29.94- 48.9- 45.0---
2026-05-10 11:12 am S 9.9 14.0----29.94- 48.9- 45.0---
2026-05-10 11:02 am S 9.9 15.9----29.93- 48.9- 44.2---
2026-05-10 10:52 am S 12.0 19.0----29.93- 48.9- 45.0---
2026-05-10 10:42 am S 11.1 17.1----29.93- 48.9- 45.1---
2026-05-10 10:32 am S 9.9 19.0----29.92- 48.9- 45.0---
2026-05-10 10:22 am S 7.0 14.0----29.92- 48.9- 45.0---
2026-05-10 10:12 am S 6.0 12.0----29.91- 48.7- 44.8---
2026-05-10 10:02 am S 6.0 13.0----29.91- 48.7- 44.8---
2026-05-10 09:52 am S 7.0 12.0----29.91- 48.7- 44.8---
2026-05-10 09:42 am S 8.0 12.0----29.90- 48.6- 44.6---
2026-05-10 09:32 am S 8.9 15.0----29.91- 48.6- 44.8---
2026-05-10 09:22 am S 8.0 15.0----29.91- 48.7- 44.8---
2026-05-10 09:12 am S 9.9 15.9----29.91- 48.7- 44.4---
2026-05-10 09:02 am S 11.1 17.1----29.90- 48.7- 44.4---
2026-05-10 08:52 am S 9.9 19.0----29.90- 48.7- 44.8---
2026-05-10 08:42 am S 11.1 15.0----29.90- 48.9- 44.6---
2026-05-10 08:32 am S 9.9 17.1----29.90- 48.7- 44.8---
2026-05-10 08:22 am S 12.0 19.0----29.89- 48.6- 44.6---
2026-05-10 08:12 am S 9.9 17.1----29.89- 48.9- 44.1---
2026-05-10 08:02 am S 9.9 15.9----29.89- 48.7- 44.1---
2026-05-10 07:52 am S 8.9 15.9----29.89- 48.6- 44.6---
2026-05-10 07:42 am S 8.9 14.0----29.88- 48.4- 44.4---
2026-05-10 07:32 am S 11.1 19.0----29.88- 48.6- 44.6---
2026-05-10 07:22 am S 12.0 20.0----29.88- 48.7- 44.4---
2026-05-10 07:12 am S 12.0 18.1----29.87- 48.7- 44.1---
2026-05-10 07:02 am S 13.0 22.0----29.87- 48.7- 44.4---
2026-05-10 06:52 am S 15.0 22.0----29.86- 48.9- 44.2---
2026-05-10 06:42 am S 13.0 21.0----29.86- 48.9- 43.7---
2026-05-10 06:32 am S 12.0 20.0----29.86- 48.6- 44.6---
2026-05-10 06:22 am S 12.0 19.0----29.86- 48.7- 44.8---
2026-05-10 06:12 am S 12.0 18.1----29.86- 48.7- 44.4---
2026-05-10 06:02 am S 13.0 21.0----29.85- 48.7- 44.8---
2026-05-10 05:52 am S 14.0 18.1----29.85- 48.9- 44.6---
2026-05-10 05:42 am S 12.0 21.0----29.85- 48.9- 44.6---
2026-05-10 05:32 am S 11.1 19.0----29.85- 48.9- 44.6---
2026-05-10 05:22 am S 14.0 21.0----29.85- 48.9- 44.6---
2026-05-10 05:12 am S 11.1 18.1----29.85- 48.9- 44.6---
2026-05-10 05:02 am S 11.1 19.0----29.85- 48.9- 44.2---
2026-05-10 04:52 am S 11.1 18.1----29.85- 48.9- 44.2---
2026-05-10 04:42 am S 13.0 20.0----29.84- 49.5- 44.2---
2026-05-10 04:32 am S 9.9 15.0----29.84- 49.1- 44.2---
2026-05-10 04:22 am S 8.9 15.9----29.84- 49.1- 43.9---
2026-05-10 04:12 amESE 2.9 7.0----29.84- 48.4- 44.1---
2026-05-10 04:02 amSSE 2.9 6.0----29.84- 47.8- 44.2---
2026-05-10 03:52 am E 4.1 6.0----29.83- 47.5- 43.9---
2026-05-10 03:42 am SE 2.9 7.0----29.83- 47.8- 43.9---
2026-05-10 03:32 am E 6.0 13.0----29.83- 48.4- 44.1---
2026-05-10 03:22 am SE 7.0 18.1----29.83- 48.4- 43.5---
2026-05-10 03:12 am SE 4.1 13.0----29.83- 48.9- 43.3---
2026-05-10 03:02 am S 7.0 13.0----29.83- 49.5- 43.2---
2026-05-10 02:52 am S 8.9 14.0----29.83- 48.9- 44.2---
2026-05-10 02:42 am S 11.1 15.0----29.83- 48.9- 45.0---
2026-05-10 02:32 am S 13.0 20.0----29.83- 48.9- 44.6---
2026-05-10 02:22 am S 12.0 17.1----29.83- 48.9- 45.5---
2026-05-10 02:12 am S 12.0 18.1----29.83- 48.9- 45.5---
2026-05-10 02:02 am S 12.0 20.0----29.83- 49.1- 45.3---
2026-05-10 01:52 am S 11.1 19.0----29.82- 49.6- 45.3---
2026-05-10 01:42 amSSE 2.9 15.0----29.82- 49.3- 45.3---
2026-05-10 01:32 am SE 1.9 4.1----29.82- 48.9- 45.5---
2026-05-10 01:22 amESE 2.9 5.1----29.81- 48.7- 45.7---
2026-05-10 01:12 amENE 2.9 6.0----29.81- 48.9- 45.5---
2026-05-10 01:02 amESE 1.9 5.1----29.81- 48.9- 45.1---
2026-05-10 12:52 am S 2.9 6.0----29.81- 48.9- 45.1---
2026-05-10 12:42 am SE 2.9 8.0----29.81- 48.9- 45.1---
2026-05-10 12:32 amSSE 4.1 8.0----29.81- 48.9- 45.1---
2026-05-10 12:22 amESE 4.1 8.9----29.81- 48.9- 45.5---
2026-05-10 12:12 amSSE 6.0 9.9----29.80- 48.9- 45.5---
2026-05-10 12:02 amSSE 4.1 8.0----29.80- 48.9- 45.1---
2026-05-09 11:52 pmESE 4.1 7.0----29.80- 48.7- 45.3---
2026-05-09 11:42 pmESE 2.9 8.0----29.80- 48.6- 45.5---
2026-05-09 11:32 pmESE 2.9 11.1----29.80- 48.6- 45.5---
2026-05-09 11:22 pm SE 2.9 8.9----29.80- 48.6- 45.5---
2026-05-09 11:12 pm SE 4.1 13.0----29.80- 48.6- 45.5---
2026-05-09 11:02 pmSSE 4.1 8.0----29.79- 48.4- 45.3---
2026-05-09 10:52 pm SE 4.1 9.9----29.79- 48.4- 45.3---
2026-05-09 10:42 pmESE 5.1 15.9----29.79- 48.2- 45.1---
2026-05-09 10:32 pmESE 6.0 15.0----29.78- 48.2- 45.1---
2026-05-09 10:22 pmESE 7.0 15.9----29.78- 48.0- 45.0---
2026-05-09 10:12 pmESE 5.1 14.0----29.78- 47.7- 44.6---
2026-05-09 10:02 pmESE 5.1 14.0----29.78- 47.7- 44.6---
2026-05-09 09:52 pmESE 6.0 15.0----29.78- 47.8- 44.8---
2026-05-09 09:42 pmESE 6.0 17.1----29.78- 47.8- 44.4---
2026-05-09 09:32 pmESE 7.0 15.9----29.78- 47.7- 44.2---
2026-05-09 09:22 pmESE 6.0 15.9----29.79- 47.8- 44.4---
2026-05-09 09:12 pmESE 7.0 20.0----29.79- 47.8- 44.2---
2026-05-09 09:02 pmESE 7.0 18.1----29.78- 47.8- 44.2---
2026-05-09 08:52 pmESE 7.0 19.0----29.78- 47.7- 44.2---
2026-05-09 08:42 pmESE 6.0 17.1----29.78- 47.8- 44.2---
2026-05-09 08:32 pmESE 6.0 15.9----29.78- 47.8- 44.2---
2026-05-09 08:22 pmESE 8.0 20.0----29.78- 48.0- 44.4---
2026-05-09 08:12 pm E 8.9 19.0----29.78- 48.2- 44.2---
2026-05-09 08:02 pm E 8.0 17.1----29.78- 48.2- 44.8---
2026-05-09 07:52 pmESE 6.0 15.0----29.78- 48.2- 44.8---
2026-05-09 07:42 pmESE 7.0 15.9----29.78- 48.6- 44.6---
2026-05-09 07:32 pmESE 6.0 15.0----29.78- 48.6- 44.6---
2026-05-09 07:22 pmESE 6.0 14.0----29.78- 48.4- 44.4---
2026-05-09 07:12 pmESE 4.1 12.0----29.78- 48.2- 44.6---
2026-05-09 07:02 pmESE 6.0 13.0----29.79- 48.4- 44.4---
2026-05-09 06:52 pmESE 5.1 12.0----29.79- 48.4- 44.6---
2026-05-09 06:42 pmESE 4.1 9.9----29.79- 48.7- 44.8---
2026-05-09 06:32 pmESE 5.1 12.0----29.80- 49.6- 44.6---
2026-05-09 06:22 pmESE 6.0 17.1----29.80- 50.4- 44.8---
2026-05-09 06:12 pmESE 6.0 17.1----29.80- 50.7- 45.1---
2026-05-09 06:02 pmESE 7.0 19.0----29.80- 50.7- 45.1---
2026-05-09 05:52 pmESE 5.1 15.0----29.80- 50.7- 45.5---
2026-05-09 05:42 pmESE 8.0 20.0----29.81- 50.7- 45.5---
2026-05-09 05:32 pmESE 8.0 20.0----29.81- 50.7- 45.7---
2026-05-09 05:22 pmESE 7.0 19.0----29.82- 51.3- 46.2---
2026-05-09 05:12 pm E 7.0 18.1----29.82- 50.7- 46.0---
2026-05-09 05:02 pmESE 7.0 17.1----29.83- 50.7- 45.5---
2026-05-09 04:52 pm E 7.0 17.1----29.82- 50.2- 45.9---
2026-05-09 04:42 pmESE 6.0 15.9----29.83- 50.5- 46.6---
2026-05-09 04:32 pmESE 6.0 15.9----29.83- 50.9- 46.6---
2026-05-09 04:22 pmESE 7.0 15.9----29.82- 51.3- 46.6---
2026-05-09 04:12 pmESE 6.0 15.9----29.82- 51.8- 46.4---
2026-05-09 04:02 pm E 6.0 13.0----29.82- 52.3- 46.4---
2026-05-09 03:52 pm E 7.0 17.1----29.82- 52.5- 46.6---
2026-05-09 03:42 pm E 7.0 14.0----29.82- 52.3- 46.4---
2026-05-09 03:32 pmESE 7.0 15.9----29.83- 52.3- 46.4---
2026-05-09 03:22 pm E 8.0 17.1----29.83- 52.5- 46.6---
2026-05-09 03:12 pm E 6.0 15.0----29.83- 52.7- 46.4---
2026-05-09 03:02 pm E 6.0 14.0----29.83- 52.7- 46.4---
2026-05-09 02:52 pmESE 4.1 12.0----29.84- 52.5- 46.2---